Time;durP1;ratioP1;P1;durP2;ratioP2;P2;SDS_P1;SDS_P2;PMS_P1;PMS_P2;Temp;Humidity;BMP_temperature;BMP_pressure;BME280_temperature;BME280_humidity;BME280_pressure;Samples;Min_cycle;Max_cycle;Signal;HPM_P1;HPM_P2
2021/12/03 00:01:27;;;;;;;1.60;1.50;;;19.80;39.50;;;;;;5002030;28;20221;-68
2021/12/03 00:03:53;;;;;;;1.70;1.60;;;19.80;39.50;;;;;;5003921;28;20238;-68
2021/12/03 00:06:19;;;;;;;1.20;1.10;;;19.80;39.50;;;;;;5000563;28;20480;-68
2021/12/03 00:08:45;;;;;;;1.37;1.27;;;19.80;39.50;;;;;;5001537;28;21045;-68
2021/12/03 00:11:13;;;;;;;2.10;1.50;;;19.80;39.50;;;;;;5004412;28;20454;-69
2021/12/03 00:13:39;;;;;;;1.50;1.40;;;19.80;40.20;;;;;;4999431;28;20465;-68
2021/12/03 00:16:06;;;;;;;1.70;1.60;;;19.80;39.50;;;;;;4985889;28;20540;-68
2021/12/03 00:18:32;;;;;;;1.70;1.60;;;19.80;39.50;;;;;;4999678;28;20220;-68
2021/12/03 00:21:02;;;;;;;1.30;1.20;;;19.80;39.40;;;;;;5002510;28;20450;-68
2021/12/03 00:23:28;;;;;;;2.60;1.43;;;19.80;39.40;;;;;;5001734;28;20457;-68
2021/12/03 00:25:55;;;;;;;1.80;1.50;;;19.80;39.40;;;;;;4985457;28;20871;-68
2021/12/03 00:28:21;;;;;;;1.30;1.20;;;19.80;40.20;;;;;;4999794;28;20905;-68
2021/12/03 00:30:47;;;;;;;1.47;1.37;;;19.80;39.30;;;;;;5001811;28;20449;-68
2021/12/03 00:33:12;;;;;;;1.40;1.30;;;19.80;39.40;;;;;;4992016;28;20707;-68
2021/12/03 00:35:38;;;;;;;1.73;1.63;;;19.80;39.40;;;;;;4998528;28;20241;-68
2021/12/03 00:38:04;;;;;;;2.20;1.50;;;19.80;39.30;;;;;;5002275;28;20251;-68
2021/12/03 00:40:33;;;;;;;2.20;1.57;;;19.80;39.30;;;;;;4999397;28;20223;-68
2021/12/03 00:43:00;;;;;;;1.43;1.33;;;19.80;39.30;;;;;;4997388;28;20830;-68
2021/12/03 00:45:26;;;;;;;1.40;1.30;;;19.80;39.30;;;;;;5004227;28;20574;-68
2021/12/03 00:47:52;;;;;;;1.37;1.27;;;19.80;39.30;;;;;;5003900;28;20468;-68
2021/12/03 00:50:20;;;;;;;1.50;1.40;;;19.80;39.30;;;;;;4995466;28;20446;-68
2021/12/03 00:52:47;;;;;;;1.40;1.30;;;19.80;39.30;;;;;;4996445;28;20247;-68
2021/12/03 00:55:13;;;;;;;2.13;1.40;;;19.80;39.30;;;;;;4998617;28;20472;-68
2021/12/03 00:57:39;;;;;;;1.50;1.40;;;19.80;39.30;;;;;;5003910;28;20503;-68
2021/12/03 01:00:10;;;;;;;1.70;1.60;;;19.80;39.30;;;;;;4998491;28;20947;-68
2021/12/03 01:02:36;;;;;;;5.37;1.50;;;19.80;39.30;;;;;;4999617;28;20267;-68
2021/12/03 01:05:02;;;;;;;1.70;1.60;;;19.80;39.20;;;;;;5001680;28;20856;-68
2021/12/03 01:07:28;;;;;;;1.50;1.40;;;19.80;39.20;;;;;;5001712;28;20234;-68
2021/12/03 01:09:53;;;;;;;1.80;1.70;;;19.80;39.20;;;;;;5000576;28;20466;-68
2021/12/03 01:12:19;;;;;;;2.20;1.50;;;19.80;39.30;;;;;;4999425;28;20584;-68
2021/12/03 01:14:45;;;;;;;1.37;1.27;;;19.80;39.10;;;;;;5001000;28;20650;-68
2021/12/03 01:17:10;;;;;;;1.37;1.27;;;19.80;39.30;;;;;;5000247;28;20231;-68
2021/12/03 01:19:36;;;;;;;1.37;1.27;;;19.80;39.10;;;;;;4995415;28;20220;-68
2021/12/03 01:22:02;;;;;;;1.70;1.60;;;19.80;39.20;;;;;;4999607;28;20629;-68
2021/12/03 01:24:28;;;;;;;1.50;1.40;;;19.80;39.20;;;;;;5001512;28;20255;-68
2021/12/03 01:26:54;;;;;;;1.60;1.50;;;19.80;39.20;;;;;;4999298;28;20454;-68
2021/12/03 01:29:22;;;;;;;1.70;1.60;;;19.80;39.20;;;;;;5004635;28;20215;-69
2021/12/03 01:31:47;;;;;;;1.97;1.70;;;19.80;39.20;;;;;;5002663;28;20458;-68
2021/12/03 01:34:15;;;;;;;1.40;1.30;;;19.80;39.10;;;;;;4994024;28;20549;-68
2021/12/03 01:36:40;;;;;;;1.40;1.30;;;19.80;39.10;;;;;;4997683;28;20226;-68
2021/12/03 01:39:07;;;;;;;1.60;1.50;;;19.80;39.10;;;;;;5001157;28;20445;-68
2021/12/03 01:41:33;;;;;;;1.50;1.40;;;19.80;39.00;;;;;;5000917;28;20297;-68
2021/12/03 01:44:02;;;;;;;1.77;1.67;;;19.80;39.00;;;;;;4998224;28;20474;-68
2021/12/03 01:46:29;;;;;;;1.77;1.67;;;19.80;39.10;;;;;;5002985;28;20488;-68
2021/12/03 01:48:55;;;;;;;1.60;1.50;;;19.80;39.10;;;;;;4997877;28;20521;-68
2021/12/03 01:51:21;;;;;;;1.70;1.60;;;19.80;39.00;;;;;;5005361;28;20475;-68
2021/12/03 01:53:47;;;;;;;1.67;1.57;;;19.80;39.00;;;;;;5004755;28;20688;-68
2021/12/03 01:56:15;;;;;;;1.50;1.40;;;19.80;39.10;;;;;;5006359;28;20428;-68
2021/12/03 01:58:43;;;;;;;1.40;1.30;;;19.80;39.00;;;;;;5004667;28;20448;-68
2021/12/03 02:01:12;;;;;;;2.27;1.40;;;19.80;39.00;;;;;;5003929;28;20481;-68
2021/12/03 02:03:40;;;;;;;1.43;1.33;;;19.80;39.00;;;;;;5005582;28;20462;-68
2021/12/03 02:06:08;;;;;;;1.80;1.70;;;19.80;39.10;;;;;;5004081;28;20432;-68
2021/12/03 02:08:34;;;;;;;1.70;1.60;;;19.80;39.00;;;;;;5001473;28;20435;-68
2021/12/03 02:10:59;;;;;;;1.40;1.30;;;19.80;39.00;;;;;;5003988;28;20438;-68
2021/12/03 02:13:25;;;;;;;1.60;1.50;;;19.80;39.00;;;;;;5008468;28;20227;-67
2021/12/03 02:15:51;;;;;;;1.60;1.30;;;19.80;39.00;;;;;;5005060;28;20290;-68
2021/12/03 02:18:18;;;;;;;1.83;1.40;;;19.80;39.00;;;;;;5003109;28;20271;-68
2021/12/03 02:20:49;;;;;;;1.70;1.60;;;19.80;39.00;;;;;;5000247;28;20223;-68
2021/12/03 02:23:15;;;;;;;1.30;1.20;;;19.80;39.00;;;;;;5004910;28;20945;-68
2021/12/03 02:25:42;;;;;;;1.60;1.40;;;19.70;39.00;;;;;;5000976;28;20446;-68
2021/12/03 02:28:09;;;;;;;1.70;1.60;;;19.80;39.80;;;;;;5003346;28;20544;-68
2021/12/03 02:30:35;;;;;;;1.50;1.40;;;19.70;39.00;;;;;;5003992;28;20446;-68
2021/12/03 02:33:00;;;;;;;2.23;1.50;;;19.70;39.00;;;;;;5004620;28;20484;-68
2021/12/03 02:35:26;;;;;;;1.60;1.50;;;19.70;39.70;;;;;;5005984;28;20476;-68
2021/12/03 02:37:53;;;;;;;1.57;1.47;;;19.70;39.00;;;;;;5002701;28;20243;-68
2021/12/03 02:40:20;;;;;;;1.83;1.63;;;19.80;39.00;;;;;;4986578;28;20275;-68
2021/12/03 02:42:46;;;;;;;2.43;1.70;;;19.70;39.00;;;;;;5002236;28;21005;-68
2021/12/03 02:45:14;;;;;;;1.63;1.53;;;19.80;39.00;;;;;;5002306;28;20485;-68
2021/12/03 02:47:39;;;;;;;1.40;1.30;;;19.70;39.00;;;;;;5000373;28;20415;-69
2021/12/03 02:50:07;;;;;;;1.40;1.30;;;19.80;39.00;;;;;;5004665;28;20518;-68
2021/12/03 02:52:33;;;;;;;1.50;1.40;;;19.70;39.00;;;;;;5005622;28;20212;-68
2021/12/03 02:54:59;;;;;;;1.57;1.47;;;19.80;39.00;;;;;;4996782;28;20466;-68
2021/12/03 02:57:25;;;;;;;1.43;1.33;;;19.80;39.00;;;;;;5004702;28;20458;-68
2021/12/03 02:59:50;;;;;;;1.50;1.40;;;19.80;39.00;;;;;;5002445;28;20366;-68
2021/12/03 03:02:17;;;;;;;1.53;1.43;;;19.80;39.00;;;;;;5000762;28;20299;-68
2021/12/03 03:04:43;;;;;;;2.33;1.60;;;19.70;39.00;;;;;;5003980;28;20215;-68
2021/12/03 03:07:08;;;;;;;1.63;1.53;;;19.80;39.00;;;;;;5001807;28;20496;-68
2021/12/03 03:09:34;;;;;;;1.90;1.80;;;19.80;39.00;;;;;;4998693;28;20216;-68
2021/12/03 03:12:00;;;;;;;1.80;1.50;;;19.80;39.00;;;;;;4998514;28;20646;-68
2021/12/03 03:14:26;;;;;;;1.57;1.47;;;19.70;39.00;;;;;;4999903;28;20232;-68
2021/12/03 03:16:52;;;;;;;2.70;1.63;;;19.80;39.00;;;;;;5002824;28;20454;-68
2021/12/03 03:19:21;;;;;;;1.40;1.30;;;19.70;39.00;;;;;;5001732;28;20215;-68
2021/12/03 03:21:47;;;;;;;1.40;1.30;;;19.80;39.00;;;;;;5002855;28;20467;-68
2021/12/03 03:24:15;;;;;;;1.60;1.50;;;19.70;39.00;;;;;;5002039;28;20429;-68
2021/12/03 03:26:45;;;;;;;2.63;1.90;;;19.70;39.00;;;;;;4997349;28;20458;-68
2021/12/03 03:29:13;;;;;;;1.70;1.60;;;19.70;39.00;;;;;;5002150;28;20454;-68
2021/12/03 03:31:40;;;;;;;1.50;1.40;;;19.80;39.00;;;;;;4998259;28;20447;-69
2021/12/03 03:34:08;;;;;;;1.70;1.60;;;19.80;39.00;;;;;;5004587;28;20477;-68
2021/12/03 03:36:36;;;;;;;1.30;1.20;;;19.70;39.00;;;;;;5004355;28;20420;-68
2021/12/03 03:39:04;;;;;;;1.80;1.70;;;19.70;39.00;;;;;;4999173;28;20445;-68
2021/12/03 03:41:30;;;;;;;1.70;1.60;;;19.70;39.00;;;;;;5002353;28;20500;-68
2021/12/03 03:43:56;;;;;;;1.50;1.30;;;19.80;39.00;;;;;;5002362;28;20462;-68
2021/12/03 03:46:22;;;;;;;2.07;1.43;;;19.70;39.00;;;;;;4988768;28;20228;-68
2021/12/03 03:48:47;;;;;;;1.40;1.30;;;19.80;39.00;;;;;;5001277;28;20240;-68
2021/12/03 03:51:13;;;;;;;1.40;1.30;;;19.70;39.00;;;;;;5004015;28;20216;-68
2021/12/03 03:53:41;;;;;;;1.50;1.40;;;19.70;39.00;;;;;;5001478;28;20220;-68
2021/12/03 03:56:07;;;;;;;1.50;1.40;;;19.70;39.00;;;;;;5001561;28;20777;-68
2021/12/03 03:58:33;;;;;;;1.37;1.27;;;19.70;39.00;;;;;;4999883;28;20449;-68
2021/12/03 04:00:59;;;;;;;1.53;1.43;;;19.70;39.00;;;;;;4997849;28;20541;-68
2021/12/03 04:03:25;;;;;;;1.37;1.27;;;19.70;39.00;;;;;;4999758;28;20212;-68
2021/12/03 04:05:52;;;;;;;1.60;1.50;;;19.70;39.00;;;;;;4999996;28;20240;-68
2021/12/03 04:08:18;;;;;;;1.70;1.60;;;19.70;39.00;;;;;;4985491;28;20484;-68
2021/12/03 04:10:44;;;;;;;1.57;1.47;;;19.70;39.00;;;;;;5006031;28;20457;-68
2021/12/03 04:13:10;;;;;;;1.50;1.40;;;19.70;39.00;;;;;;4996610;28;20212;-68
2021/12/03 04:15:37;;;;;;;1.50;1.40;;;19.70;39.00;;;;;;4999337;28;20551;-68
2021/12/03 04:18:03;;;;;;;2.17;1.40;;;19.70;39.00;;;;;;4998871;28;20255;-68
2021/12/03 04:20:29;;;;;;;1.50;1.40;;;19.70;39.00;;;;;;4991205;28;20509;-68
2021/12/03 04:22:54;;;;;;;1.60;1.50;;;19.70;39.00;;;;;;5002316;28;20228;-73
2021/12/03 04:25:22;;;;;;;2.27;1.50;;;19.70;39.00;;;;;;5001729;28;20227;-72
2021/12/03 04:27:48;;;;;;;1.60;1.50;;;19.70;39.00;;;;;;5002249;28;20243;-71
2021/12/03 04:30:18;;;;;;;1.70;1.60;;;19.80;39.00;;;;;;5004020;28;20480;-70
2021/12/03 04:32:44;;;;;;;1.70;1.60;;;19.70;39.00;;;;;;5001584;28;20565;-71
2021/12/03 04:35:10;;;;;;;1.53;1.43;;;19.70;39.00;;;;;;5000605;28;20468;-71
2021/12/03 04:37:37;;;;;;;1.33;1.23;;;19.70;39.00;;;;;;4989843;28;20453;-71
2021/12/03 04:40:05;;;;;;;1.93;1.30;;;19.70;39.00;;;;;;5000220;28;20477;-71
2021/12/03 04:42:31;;;;;;;1.50;1.40;;;19.70;39.00;;;;;;5006070;28;20532;-71
2021/12/03 04:44:56;;;;;;;1.73;1.60;;;19.70;39.00;;;;;;5002227;28;20534;-70
2021/12/03 04:47:22;;;;;;;1.70;1.60;;;19.70;39.00;;;;;;5002586;28;20270;-70
2021/12/03 04:49:48;;;;;;;1.40;1.30;;;19.70;39.00;;;;;;5000538;28;20251;-70
2021/12/03 04:52:13;;;;;;;1.70;1.60;;;19.70;39.00;;;;;;4987788;28;20352;-70
2021/12/03 04:54:40;;;;;;;1.50;1.40;;;19.70;39.00;;;;;;5000320;28;20280;-70
2021/12/03 04:57:06;;;;;;;1.90;1.80;;;19.70;39.00;;;;;;4999291;28;20612;-70
2021/12/03 04:59:32;;;;;;;2.60;1.40;;;19.70;39.00;;;;;;5000366;28;20424;-69
2021/12/03 05:01:58;;;;;;;1.60;1.50;;;19.70;39.00;;;;;;5000709;28;20441;-69
2021/12/03 05:04:24;;;;;;;1.90;1.47;;;19.70;39.00;;;;;;5004729;28;20223;-68
2021/12/03 05:06:56;;;;;;;2.20;1.53;;;19.70;39.00;;;;;;5001453;28;20797;-69
2021/12/03 05:09:22;;;;;;;1.50;1.40;;;19.70;39.00;;;;;;5000305;28;20291;-69
2021/12/03 05:11:48;;;;;;;1.87;1.30;;;19.70;39.00;;;;;;5001331;28;20797;-69
2021/12/03 05:14:14;;;;;;;1.67;1.57;;;19.70;39.00;;;;;;4985116;28;21104;-69
2021/12/03 05:16:40;;;;;;;1.53;1.30;;;19.70;39.00;;;;;;5002251;28;20540;-69
2021/12/03 05:19:06;;;;;;;1.43;1.33;;;19.70;39.00;;;;;;5001416;28;20532;-68
2021/12/03 05:21:31;;;;;;;1.80;1.33;;;19.80;39.00;;;;;;4998388;28;20351;-68
2021/12/03 05:23:57;;;;;;;1.40;1.30;;;19.70;39.00;;;;;;4995068;28;20224;-69
2021/12/03 05:26:23;;;;;;;1.57;1.47;;;19.70;39.00;;;;;;5001941;28;20224;-68
2021/12/03 05:28:49;;;;;;;1.33;1.23;;;19.70;39.00;;;;;;4983002;28;20223;-69
2021/12/03 05:31:15;;;;;;;1.50;1.40;;;19.70;39.00;;;;;;5003256;28;20682;-68
2021/12/03 05:33:40;;;;;;;1.63;1.53;;;19.80;39.00;;;;;;5001099;28;20430;-78
2021/12/03 05:36:06;;;;;;;1.30;1.20;;;19.70;39.00;;;;;;5001056;28;20262;-75
2021/12/03 05:38:32;;;;;;;1.60;1.50;;;19.80;39.00;;;;;;4997050;28;20266;-77
2021/12/03 05:40:57;;;;;;;1.70;1.60;;;19.70;39.00;;;;;;4999600;28;20224;-76
2021/12/03 05:43:23;;;;;;;1.40;1.30;;;19.80;39.00;;;;;;5000605;28;20220;-76
2021/12/03 05:45:49;;;;;;;1.43;1.33;;;19.80;39.00;;;;;;4997185;28;20307;-76
2021/12/03 05:48:15;;;;;;;1.40;1.30;;;19.80;39.00;;;;;;4997863;28;20307;-75
2021/12/03 05:50:42;;;;;;;1.63;1.53;;;19.80;39.00;;;;;;4998645;28;20224;-74
2021/12/03 05:53:07;;;;;;;1.40;1.30;;;19.80;39.00;;;;;;5001692;28;20415;-74
2021/12/03 05:55:33;;;;;;;1.40;1.30;;;19.80;39.00;;;;;;4982481;28;20436;-73
2021/12/03 05:57:59;;;;;;;1.70;1.60;;;19.80;39.00;;;;;;4999318;28;20229;-74
2021/12/03 06:00:38;;;;;;;1.73;1.10;;;19.80;39.00;;;;;;4999671;28;20228;-72
2021/12/03 06:03:04;;;;;;;1.40;1.30;;;19.80;39.00;;;;;;4996647;28;20570;-74
2021/12/03 06:05:31;;;;;;;1.60;1.30;;;19.80;39.00;;;;;;5002552;28;20512;-73
2021/12/03 06:07:57;;;;;;;1.67;1.57;;;19.80;39.00;;;;;;5001644;28;20474;-72
2021/12/03 06:10:24;;;;;;;1.67;1.43;;;19.80;39.00;;;;;;5001849;28;20983;-72
2021/12/03 06:12:50;;;;;;;1.60;1.50;;;19.90;39.10;;;;;;5002292;28;20465;-73
2021/12/03 06:15:17;;;;;;;2.00;1.90;;;19.90;39.10;;;;;;4997049;28;20524;-71
2021/12/03 06:17:42;;;;;;;2.17;1.40;;;19.90;39.10;;;;;;4999186;28;20420;-74
2021/12/03 06:20:09;;;;;;;2.00;1.80;;;19.90;39.10;;;;;;5004492;28;20448;-73
2021/12/03 06:22:35;;;;;;;2.83;1.50;;;19.90;39.20;;;;;;4999919;28;20303;-73
2021/12/03 06:25:01;;;;;;;2.10;1.60;;;19.90;39.10;;;;;;5000117;28;20532;-72
2021/12/03 06:27:29;;;;;;;2.10;1.30;;;19.90;39.10;;;;;;5001149;28;20228;-69
2021/12/03 06:29:56;;;;;;;2.20;1.97;;;19.90;39.10;;;;;;4997936;28;20541;-72
2021/12/03 06:32:21;;;;;;;1.40;1.30;;;19.90;39.10;;;;;;5001342;28;20958;-73
2021/12/03 06:34:47;;;;;;;1.57;1.47;;;19.90;39.10;;;;;;4998260;28;20464;-76
2021/12/03 06:37:13;;;;;;;1.50;1.40;;;19.90;39.10;;;;;;5000223;28;20220;-73
2021/12/03 06:39:38;;;;;;;3.90;1.53;;;19.90;39.10;;;;;;5003928;28;20674;-76
2021/12/03 06:42:04;;;;;;;2.57;2.30;;;20.00;39.20;;;;;;5004853;28;20216;-73
2021/12/03 06:44:30;;;;;;;2.00;1.33;;;19.90;39.10;;;;;;4989931;28;20232;-74
2021/12/03 06:46:56;;;;;;;1.37;1.27;;;20.00;39.10;;;;;;5006224;28;20451;-73
2021/12/03 06:49:23;;;;;;;3.53;1.53;;;20.00;39.20;;;;;;5000837;28;20665;-75
2021/12/03 06:51:51;;;;;;;5.53;1.50;;;20.00;39.10;;;;;;5001788;28;20224;-75
2021/12/03 06:54:26;;;;;;;1.50;1.40;;;20.00;39.10;;;;;;5004734;28;20440;-78
2021/12/03 06:56:52;;;;;;;1.57;1.47;;;20.00;39.10;;;;;;5005961;28;20537;-79
2021/12/03 06:59:23;;;;;;;1.67;1.57;;;20.00;39.20;;;;;;5005286;28;20676;-73
2021/12/03 07:01:50;;;;;;;1.50;1.40;;;20.00;39.20;;;;;;5005107;28;20974;-76
2021/12/03 07:04:16;;;;;;;1.80;1.70;;;20.00;39.20;;;;;;5003440;28;21028;-77
2021/12/03 07:06:42;;;;;;;1.63;1.50;;;20.00;39.20;;;;;;5003279;28;20816;-78
2021/12/03 07:09:08;;;;;;;1.40;1.30;;;20.00;39.20;;;;;;5001307;28;20417;-81
2021/12/03 07:11:33;;;;;;;1.80;1.60;;;20.00;39.20;;;;;;5007032;28;20286;-80
2021/12/03 07:13:59;;;;;;;1.93;1.70;;;20.00;39.20;;;;;;5001336;28;20224;-77
2021/12/03 07:16:25;;;;;;;3.20;1.33;;;20.00;39.10;;;;;;5004337;28;20227;-79
2021/12/03 07:18:51;;;;;;;2.70;1.60;;;20.00;39.10;;;;;;4987863;28;20248;-79
2021/12/03 07:21:16;;;;;;;1.90;1.80;;;20.00;39.10;;;;;;5002425;28;20242;-80
2021/12/03 07:23:42;;;;;;;2.37;1.50;;;20.00;39.10;;;;;;5002585;28;20250;-80
2021/12/03 07:26:08;;;;;;;6.20;1.47;;;20.00;39.10;;;;;;5002634;28;20228;-80
2021/12/03 07:28:34;;;;;;;2.03;1.43;;;20.00;39.20;;;;;;5002533;28;20232;-78
2021/12/03 07:31:00;;;;;;;2.40;1.50;;;20.00;39.10;;;;;;5000546;28;20618;-80
2021/12/03 07:33:28;;;;;;;2.70;1.70;;;20.00;39.10;;;;;;5002657;28;20458;-79
2021/12/03 07:35:54;;;;;;;2.10;1.90;;;20.00;39.10;;;;;;5001784;28;20238;-69
2021/12/03 07:38:20;;;;;;;2.07;1.50;;;20.00;39.10;;;;;;4997882;28;21030;-69
2021/12/03 07:40:48;;;;;;;1.67;1.57;;;20.00;39.10;;;;;;5001908;28;20450;-69
2021/12/03 07:43:16;;;;;;;5.50;2.00;;;20.00;39.00;;;;;;4998946;28;20620;-77
2021/12/03 07:45:42;;;;;;;2.47;2.27;;;20.00;39.10;;;;;;5001163;28;21008;-76
2021/12/03 07:48:07;;;;;;;1.90;1.67;;;20.00;39.10;;;;;;5003082;28;20441;-76
2021/12/03 07:50:35;;;;;;;1.50;1.40;;;20.00;39.00;;;;;;5000966;28;20445;-76
2021/12/03 07:53:02;;;;;;;3.40;1.97;;;20.00;38.90;;;;;;5002598;28;20231;-75
2021/12/03 07:55:28;;;;;;;1.47;1.37;;;20.00;38.90;;;;;;4998232;28;20465;-69
2021/12/03 07:57:55;;;;;;;2.00;1.83;;;20.00;38.90;;;;;;5001539;28;20455;-69
2021/12/03 08:00:21;;;;;;;1.47;1.37;;;20.00;38.80;;;;;;5006494;28;20702;-68
2021/12/03 08:02:47;;;;;;;1.80;1.70;;;20.00;38.80;;;;;;5000841;28;20443;-68
2021/12/03 08:05:12;;;;;;;2.90;1.67;;;20.00;39.00;;;;;;5007497;28;20453;-68
2021/12/03 08:07:39;;;;;;;2.30;1.70;;;20.00;38.80;;;;;;5002248;28;20231;-68
2021/12/03 08:10:05;;;;;;;3.17;1.63;;;20.00;38.80;;;;;;5002214;28;20224;-68
2021/12/03 08:12:31;;;;;;;1.80;1.33;;;20.00;38.80;;;;;;4999843;28;20440;-68
2021/12/03 08:14:57;;;;;;;1.40;1.30;;;20.00;38.90;;;;;;5003892;28;20823;-68
2021/12/03 08:17:22;;;;;;;1.50;1.33;;;20.00;38.80;;;;;;5005035;28;20220;-68
2021/12/03 08:19:48;;;;;;;1.73;1.50;;;20.00;38.80;;;;;;4999099;28;20677;-68
2021/12/03 08:22:13;;;;;;;2.30;1.40;;;20.00;38.80;;;;;;5000130;28;20223;-68
2021/12/03 08:24:39;;;;;;;1.67;1.37;;;20.00;38.90;;;;;;5003660;28;20220;-68
2021/12/03 08:27:05;;;;;;;1.90;1.50;;;20.00;38.80;;;;;;5005586;28;20364;-67
2021/12/03 08:29:30;;;;;;;2.00;1.73;;;20.00;38.80;;;;;;4999386;28;20234;-66
2021/12/03 08:31:56;;;;;;;1.80;1.50;;;20.00;38.80;;;;;;5003336;28;20604;-67
2021/12/03 08:34:22;;;;;;;1.60;1.30;;;20.00;38.80;;;;;;4998803;28;20326;-75
2021/12/03 08:36:47;;;;;;;1.83;1.50;;;20.00;38.70;;;;;;5001112;28;20707;-74
2021/12/03 08:39:13;;;;;;;2.33;1.73;;;20.00;38.70;;;;;;5003847;28;20728;-75
2021/12/03 08:41:38;;;;;;;1.60;1.30;;;20.00;38.70;;;;;;5000605;28;20232;-76
2021/12/03 08:44:05;;;;;;;1.50;1.40;;;20.00;38.70;;;;;;5001956;28;20231;-76
2021/12/03 08:46:36;;;;;;;2.20;1.40;;;20.00;38.60;;;;;;5002762;28;20224;-77
2021/12/03 08:49:12;;;;;;;1.80;1.70;;;20.00;38.60;;;;;;5005399;28;20420;-76
2021/12/03 08:56:52;;;;;;;2.30;1.60;;;20.00;38.60;;;;;;4996423;28;20503;-78
2021/12/03 08:59:18;;;;;;;1.87;1.40;;;20.00;38.60;;;;;;4994194;28;20465;-73
2021/12/03 09:01:44;;;;;;;1.50;1.40;;;20.00;38.50;;;;;;5003640;28;20216;-77
2021/12/03 09:04:12;;;;;;;1.90;1.70;;;20.00;38.60;;;;;;4999608;28;20234;-79
2021/12/03 09:06:37;;;;;;;2.60;1.80;;;20.00;38.50;;;;;;5002866;28;20516;-79
2021/12/03 09:09:06;;;;;;;1.40;1.23;;;20.00;38.60;;;;;;4999874;28;20452;-78
2021/12/03 09:11:32;;;;;;;1.43;1.30;;;20.00;38.60;;;;;;5001591;28;20220;-78
2021/12/03 09:14:01;;;;;;;1.93;1.37;;;20.00;38.50;;;;;;4987995;28;20451;-79
2021/12/03 09:16:27;;;;;;;1.70;1.30;;;20.00;38.50;;;;;;5001084;28;20655;-79
2021/12/03 09:18:54;;;;;;;2.20;1.77;;;20.00;38.50;;;;;;5001462;28;20478;-79
2021/12/03 09:21:26;;;;;;;1.47;1.37;;;20.00;38.50;;;;;;4999372;28;20228;-77
2021/12/03 09:26:18;;;;;;;2.37;1.40;;;20.00;38.50;;;;;;5003284;28;20831;-79
2021/12/03 09:28:47;;;;;;;1.80;1.70;;;20.00;38.50;;;;;;5001984;28;20222;-80
2021/12/03 09:31:15;;;;;;;1.50;1.40;;;20.00;38.60;;;;;;5001161;28;20429;-75
2021/12/03 09:33:44;;;;;;;2.60;1.40;;;20.00;38.50;;;;;;5000371;28;20442;-75
2021/12/03 09:36:10;;;;;;;1.70;1.60;;;20.00;38.50;;;;;;4999362;28;20880;-74
2021/12/03 09:38:37;;;;;;;2.63;1.40;;;20.00;38.50;;;;;;4997520;28;20649;-75
2021/12/03 09:41:14;;;;;;;1.57;1.47;;;20.00;38.50;;;;;;5000250;28;20532;-75
2021/12/03 09:43:46;;;;;;;1.40;1.30;;;20.00;38.50;;;;;;4998190;28;20478;-74
2021/12/03 09:46:18;;;;;;;13.67;1.60;;;20.00;38.50;;;;;;5001548;28;20450;-74
2021/12/03 09:51:21;;;;;;;1.60;1.50;;;20.00;38.50;;;;;;4994333;28;20917;-73
2021/12/03 09:56:12;;;;;;;2.70;1.80;;;20.00;38.50;;;;;;4995961;28;20880;-71
2021/12/03 10:01:15;;;;;;;2.00;1.40;;;20.00;38.50;;;;;;4998774;28;20212;-74
2021/12/03 10:15:37;;;;;;;1.67;1.40;;;20.00;38.40;;;;;;5003182;28;20469;-73
2021/12/03 10:34:49;;;;;;;3.13;1.37;;;19.90;38.30;;;;;;4998925;28;20555;-74
2021/12/03 10:42:35;;;;;;;1.70;1.40;;;19.90;38.30;;;;;;5003125;28;20220;-72
2021/12/03 10:56:01;;;;;;;1.53;1.30;;;19.90;38.20;;;;;;5004592;28;20239;-72
2021/12/03 11:04:12;;;;;;;2.13;1.13;;;19.90;38.20;;;;;;5006511;28;20458;-73
2021/12/03 11:17:32;;;;;;;1.50;1.27;;;19.90;38.10;;;;;;5003117;28;20416;-72
2021/12/03 11:26:21;;;;;;;1.17;1.03;;;19.80;38.00;;;;;;5000467;28;20421;-73
2021/12/03 11:31:11;;;;;;;2.30;1.20;;;19.80;38.00;;;;;;5004730;28;20446;-72
2021/12/03 11:48:09;;;;;;;1.00;0.90;;;19.90;38.00;;;;;;5003417;28;20966;-73
2021/12/03 11:59:42;;;;;;;1.33;0.97;;;19.80;37.90;;;;;;5000165;28;20497;-70
2021/12/03 12:16:35;;;;;;;1.43;1.17;;;19.80;37.80;;;;;;5003527;28;20462;-69
2021/12/03 12:23:31;;;;;;;1.10;1.00;;;19.80;37.80;;;;;;4999779;28;20526;-70
2021/12/03 12:25:12;;;;;;;1.20;1.10;;;19.80;37.80;;;;;;4999144;28;20456;-70
2021/12/03 12:32:28;;;;;;;1.00;0.90;;;19.80;37.70;;;;;;5002344;28;20820;-70
2021/12/03 12:56:52;;;;;;;1.23;1.03;;;19.80;37.60;;;;;;5001773;28;20487;-77
2021/12/03 13:05:12;;;;;;;1.13;1.03;;;19.80;37.60;;;;;;5006864;28;20481;-71
2021/12/03 13:20:55;;;;;;;1.93;0.90;;;19.80;37.60;;;;;;4995335;28;20500;-72
2021/12/03 13:30:03;;;;;;;1.60;1.00;;;19.80;37.50;;;;;;4999661;28;20436;-71
2021/12/03 14:13:28;;;;;;;1.90;1.10;;;19.70;37.50;;;;;;5003061;28;20922;-70
2021/12/03 14:18:25;;;;;;;1.87;1.30;;;19.60;37.40;;;;;;5001448;28;20544;-70
2021/12/03 14:40:33;;;;;;;1.23;1.00;;;19.60;37.20;;;;;;5000990;28;20444;-69
2021/12/03 14:51:03;;;;;;;2.70;1.10;;;19.60;37.10;;;;;;5002418;28;20461;-69
2021/12/03 14:56:05;;;;;;;1.20;1.10;;;19.60;37.10;;;;;;5002653;28;20985;-69
2021/12/03 14:58:50;;;;;;;1.67;1.00;;;19.60;37.10;;;;;;4999696;28;20413;-69
2021/12/03 15:09:06;;;;;;;1.47;1.37;;;19.50;36.90;;;;;;4999213;28;20919;-69
2021/12/03 15:32:49;;;;;;;1.07;0.80;;;19.50;37.00;;;;;;5005848;28;20788;-68
2021/12/03 15:35:22;;;;;;;1.30;0.70;;;19.50;37.00;;;;;;4998376;28;20795;-69
2021/12/03 16:13:25;;;;;;;0.87;0.87;;;19.50;37.20;;;;;;5004228;28;20507;-72
2021/12/03 16:24:15;;;;;;;0.90;0.73;;;19.50;37.10;;;;;;4999452;28;20450;-73
2021/12/03 16:46:21;;;;;;;0.90;0.80;;;19.50;37.20;;;;;;5001426;28;20829;-72
2021/12/03 16:51:31;;;;;;;0.90;0.90;;;19.50;37.10;;;;;;5002833;28;20424;-71
2021/12/03 16:54:05;;;;;;;1.00;0.90;;;19.50;37.10;;;;;;4995101;28;20511;-71
2021/12/03 16:56:32;;;;;;;0.90;0.70;;;19.50;37.10;;;;;;4998703;28;20432;-72
2021/12/03 16:58:59;;;;;;;0.90;0.80;;;19.50;37.10;;;;;;5002826;28;20453;-70
2021/12/03 17:01:35;;;;;;;0.80;0.70;;;19.50;37.00;;;;;;5001312;28;20500;-71
2021/12/03 17:12:15;;;;;;;0.70;0.70;;;19.60;37.10;;;;;;5003842;28;20480;-68
2021/12/03 17:15:07;;;;;;;1.17;0.90;;;19.60;37.10;;;;;;5000969;28;20480;-72
2021/12/03 17:18:46;;;;;;;2.40;0.80;;;19.60;37.10;;;;;;4999551;28;20450;-71
2021/12/03 17:47:31;;;;;;;0.83;0.80;;;19.50;36.90;;;;;;4994038;28;20828;-69
2021/12/03 18:00:20;;;;;;;0.90;0.90;;;19.50;37.00;;;;;;4998330;28;20500;-68
2021/12/03 18:02:49;;;;;;;0.90;0.90;;;19.50;37.00;;;;;;4995770;28;20548;-69
2021/12/03 18:07:50;;;;;;;1.40;1.00;;;19.50;37.00;;;;;;4999255;28;21085;-68
2021/12/03 18:13:35;;;;;;;1.90;1.00;;;19.50;37.10;;;;;;5000509;28;20442;-68
2021/12/03 18:19:22;;;;;;;1.27;1.17;;;19.50;37.10;;;;;;4999267;28;20441;-68
2021/12/03 18:51:34;;;;;;;1.53;0.87;;;19.50;37.40;;;;;;5002404;28;20795;-68
2021/12/03 18:56:31;;;;;;;3.03;0.93;;;19.50;37.40;;;;;;5001774;28;20974;-68
2021/12/03 18:59:00;;;;;;;1.73;1.10;;;19.50;37.40;;;;;;5001561;28;20804;-68
2021/12/03 19:01:28;;;;;;;1.10;1.00;;;19.50;37.40;;;;;;5000520;28;20540;-68
2021/12/03 19:06:30;;;;;;;1.20;1.00;;;19.50;37.40;;;;;;4998215;28;20500;-68
2021/12/03 19:08:59;;;;;;;1.00;0.90;;;19.50;37.50;;;;;;5001108;28;20460;-68
2021/12/03 19:11:36;;;;;;;2.37;1.77;;;19.60;37.60;;;;;;5004558;28;20972;-67
2021/12/03 19:14:02;;;;;;;1.10;1.00;;;19.60;37.60;;;;;;5000265;28;20458;-68
2021/12/03 19:16:28;;;;;;;3.83;1.20;;;19.50;37.50;;;;;;4999710;28;20470;-68
2021/12/03 19:18:57;;;;;;;1.33;0.90;;;19.50;37.50;;;;;;5004158;28;20457;-68
2021/12/03 19:21:26;;;;;;;2.23;1.10;;;19.60;37.60;;;;;;5002020;28;20843;-68
2021/12/03 19:24:01;;;;;;;2.20;1.00;;;19.60;37.70;;;;;;4999257;28;20941;-68
2021/12/03 19:26:29;;;;;;;1.10;1.00;;;19.60;37.70;;;;;;5000973;28;20459;-68
2021/12/03 19:28:56;;;;;;;2.50;1.13;;;19.50;37.60;;;;;;5001079;28;20450;-81
2021/12/03 19:31:24;;;;;;;1.37;1.00;;;19.60;37.70;;;;;;5003235;28;20532;-79
2021/12/03 19:33:50;;;;;;;3.10;0.93;;;19.60;37.70;;;;;;4999981;28;20460;-80
2021/12/03 19:36:21;;;;;;;1.33;1.23;;;19.60;37.70;;;;;;5002275;28;20466;-82
2021/12/03 19:38:48;;;;;;;1.17;1.07;;;19.60;37.70;;;;;;5001355;28;20467;-76
2021/12/03 19:41:25;;;;;;;1.97;1.03;;;19.60;37.70;;;;;;5000011;28;20442;-78
2021/12/03 19:43:54;;;;;;;1.17;1.03;;;19.60;37.70;;;;;;5001742;28;20452;-79
2021/12/03 19:46:26;;;;;;;1.30;0.90;;;19.60;37.70;;;;;;5003578;28;20869;-82
2021/12/03 19:49:03;;;;;;;5.60;1.23;;;19.60;37.70;;;;;;5003612;28;20962;-83
2021/12/03 19:51:30;;;;;;;1.30;1.20;;;19.60;37.80;;;;;;5000498;28;20462;-82
2021/12/03 19:56:23;;;;;;;1.10;1.00;;;19.60;37.80;;;;;;4999584;28;20946;-81
2021/12/03 19:58:49;;;;;;;1.17;1.07;;;19.60;37.80;;;;;;5004092;28;20220;-79
2021/12/03 20:01:15;;;;;;;1.20;1.00;;;19.60;37.80;;;;;;4997402;28;20443;-78
2021/12/03 20:03:41;;;;;;;1.50;1.40;;;19.60;37.80;;;;;;5001599;28;20445;-79
2021/12/03 20:06:07;;;;;;;2.63;1.20;;;19.60;37.80;;;;;;5002878;28;20240;-78
2021/12/03 20:08:34;;;;;;;1.10;0.90;;;19.60;37.80;;;;;;5002059;28;20373;-77